Paris, Canada
Current Conditions -  °F | °C
As of 4:00 AM on Sunday 21 Dec 2014 (Local Time) from CYKF Reporting Station
Overcast Overcast  
Wind Chill: 19°   Ceiling: 2700
Heat Index: 25°   Visibility: 9mi
Dew Point: 23°   Wind: 5mph
Humidity: 93%   Direction: 270°W
Pressure: 30.26"   Gusts: NA
Location:  43.2°N, 80.38°W
Report Text: CYKF 210900Z AUTO 27004KT 9SM OVC027 M04/M05 A3026 RMK SLP261
Loading
Personal Weather Stations






























Interactive Weather Map New forecast layout! Learn more

10-Day Weather Forecast

Advertisements
Track Severe Weather on mobile